createdAt,value
2022-07-29T00:00:02.981Z,100.00
2022-07-29T00:02:33.140Z,100.00
2022-07-29T00:05:00.972Z,100.00
2022-07-29T00:07:27.721Z,100.00
2022-07-29T00:09:54.411Z,100.00
2022-07-29T00:12:25.646Z,100.00
2022-07-29T00:14:56.654Z,100.00
2022-07-29T00:17:24.325Z,100.00
2022-07-29T00:19:50.973Z,100.00
2022-07-29T00:22:17.604Z,100.00
2022-07-29T00:24:44.187Z,100.00
2022-07-29T00:27:10.776Z,100.00
2022-07-29T00:29:37.424Z,51.21
2022-07-29T00:32:04.378Z,100.00
2022-07-29T00:34:50.690Z,52.65
2022-07-29T00:37:17.490Z,52.87
2022-07-29T00:39:44.306Z,52.92
2022-07-29T00:42:11.077Z,52.93
2022-07-29T00:44:39.236Z,52.64
2022-07-29T00:47:06.233Z,53.01
2022-07-29T00:49:33.887Z,53.17
2022-07-29T00:52:03.233Z,53.68
2022-07-29T00:54:30.239Z,53.32
2022-07-29T00:57:00.252Z,53.18
2022-07-29T00:59:34.658Z,53.03
2022-07-29T01:02:03.688Z,53.17
2022-07-29T01:04:30.857Z,53.50
2022-07-29T01:06:57.737Z,53.68
2022-07-29T01:09:45.484Z,53.69
2022-07-29T01:12:11.739Z,53.90
2022-07-29T01:14:38.815Z,54.07
2022-07-29T01:17:39.703Z,53.68
2022-07-29T01:20:50.663Z,54.13
2022-07-29T01:23:47.981Z,53.99
2022-07-29T01:26:23.723Z,54.42
2022-07-29T01:29:07.443Z,54.60
2022-07-29T01:32:00.581Z,54.57
2022-07-29T01:34:39.997Z,54.62
2022-07-29T01:37:20.640Z,54.55
2022-07-29T01:39:48.968Z,54.56
2022-07-29T01:42:47.452Z,54.19
2022-07-29T01:45:21.229Z,54.40
2022-07-29T01:47:55.511Z,54.46
2022-07-29T01:50:26.156Z,54.96
2022-07-29T01:53:01.240Z,54.92
2022-07-29T01:55:30.966Z,54.51
2022-07-29T01:57:58.884Z,55.01
2022-07-29T02:00:26.414Z,55.05
2022-07-29T02:02:54.223Z,54.77
2022-07-29T02:05:24.807Z,54.65
2022-07-29T02:07:52.436Z,53.97
2022-07-29T02:10:25.829Z,54.28
2022-07-29T02:12:55.445Z,54.29
2022-07-29T02:15:23.683Z,54.72
2022-07-29T02:17:54.539Z,54.67
2022-07-29T02:20:23.464Z,53.86
2022-07-29T02:22:51.459Z,54.28
2022-07-29T02:25:18.508Z,54.47
2022-07-29T02:27:45.675Z,54.40
2022-07-29T02:30:13.485Z,54.24
2022-07-29T02:32:41.497Z,54.53
2022-07-29T02:35:10.350Z,54.76
2022-07-29T02:37:37.845Z,54.19
2022-07-29T02:40:05.718Z,55.02
2022-07-29T02:42:33.393Z,54.65
2022-07-29T02:44:59.974Z,54.76
2022-07-29T02:47:45.951Z,54.60
2022-07-29T02:50:15.062Z,54.66
2022-07-29T02:52:44.649Z,54.63
2022-07-29T02:55:31.902Z,54.04
2022-07-29T02:58:07.110Z,54.14
2022-07-29T03:00:37.933Z,100.00
2022-07-29T03:03:06.241Z,100.00
2022-07-29T03:05:33.401Z,54.91
2022-07-29T03:08:04.133Z,54.71
2022-07-29T03:10:31.548Z,54.32
2022-07-29T03:12:59.151Z,54.55
2022-07-29T03:15:26.784Z,54.26
2022-07-29T03:17:54.035Z,54.18
2022-07-29T03:20:20.786Z,54.38
2022-07-29T03:22:50.228Z,54.65
2022-07-29T03:25:19.072Z,54.72
2022-07-29T03:27:46.198Z,54.46
2022-07-29T03:30:18.451Z,54.99
2022-07-29T03:32:49.651Z,54.88
2022-07-29T03:35:20.275Z,55.08
2022-07-29T03:37:47.389Z,54.62
2022-07-29T03:40:23.449Z,54.31
2022-07-29T03:42:50.569Z,54.31
2022-07-29T03:45:19.410Z,54.29
2022-07-29T03:48:00.844Z,54.56
2022-07-29T03:50:30.079Z,55.12
2022-07-29T03:52:56.838Z,54.35
2022-07-29T03:55:24.030Z,54.84
2022-07-29T03:57:50.852Z,55.06
2022-07-29T04:00:17.705Z,55.00
2022-07-29T04:02:49.797Z,54.31
2022-07-29T04:05:17.528Z,54.46
2022-07-29T04:07:48.269Z,53.70
2022-07-29T04:10:16.801Z,53.69
2022-07-29T04:12:43.753Z,52.97
2022-07-29T04:15:11.152Z,52.42
2022-07-29T04:17:38.163Z,52.64
2022-07-29T04:20:05.644Z,52.45
2022-07-29T04:22:32.243Z,52.73
2022-07-29T04:25:03.361Z,52.89
2022-07-29T04:27:30.633Z,52.93
2022-07-29T04:29:57.686Z,52.29
2022-07-29T04:32:25.130Z,51.89
2022-07-29T04:34:52.026Z,52.32
2022-07-29T04:37:18.738Z,51.96
2022-07-29T04:39:45.343Z,51.81
2022-07-29T04:42:12.033Z,51.92
2022-07-29T04:44:39.889Z,52.51
2022-07-29T04:47:09.979Z,51.57
2022-07-29T04:49:39.519Z,50.88
2022-07-29T04:52:07.034Z,50.62
2022-07-29T04:54:34.083Z,50.26
2022-07-29T04:57:00.651Z,50.60
2022-07-29T04:59:27.694Z,49.98
2022-07-29T05:01:54.482Z,50.19
2022-07-29T05:04:21.348Z,49.77
2022-07-29T05:06:48.458Z,49.89
2022-07-29T05:09:15.204Z,50.76
2022-07-29T05:11:41.858Z,49.87
2022-07-29T05:14:08.467Z,50.17
2022-07-29T05:16:35.174Z,50.79
2022-07-29T05:19:01.854Z,50.72
2022-07-29T05:21:28.454Z,50.15
2022-07-29T05:23:55.106Z,50.18
2022-07-29T05:26:21.681Z,49.47
2022-07-29T05:28:48.295Z,50.21
2022-07-29T05:31:15.744Z,49.88
2022-07-29T05:33:42.816Z,50.35
2022-07-29T05:36:09.452Z,49.45
2022-07-29T05:38:37.034Z,48.51
2022-07-29T05:41:04.251Z,48.67
2022-07-29T05:43:31.067Z,48.87
2022-07-29T05:45:58.427Z,48.01
2022-07-29T05:48:25.671Z,48.06
2022-07-29T05:50:52.322Z,48.22
2022-07-29T05:53:20.600Z,48.18
2022-07-29T05:55:48.556Z,49.06
2022-07-29T05:58:15.310Z,49.06
2022-07-29T06:00:41.903Z,48.79
2022-07-29T06:03:08.532Z,48.67
2022-07-29T06:05:35.273Z,48.91
2022-07-29T06:08:01.940Z,48.76
2022-07-29T06:10:28.522Z,49.03
2022-07-29T06:12:55.836Z,48.10
2022-07-29T06:15:22.488Z,48.36
2022-07-29T06:17:59.009Z,48.00
2022-07-29T06:20:27.828Z,47.36
2022-07-29T06:22:54.561Z,47.36
2022-07-29T06:25:21.256Z,47.26
2022-07-29T06:27:47.869Z,47.08
2022-07-29T06:30:14.492Z,47.84
2022-07-29T06:32:43.197Z,46.73
2022-07-29T06:35:36.171Z,46.70
2022-07-29T06:37:59.518Z,47.14
2022-07-29T06:40:45.766Z,46.22
2022-07-29T06:43:12.456Z,46.99
2022-07-29T06:45:42.279Z,45.57
2022-07-29T06:48:10.067Z,45.38
2022-07-29T06:50:36.827Z,45.54
2022-07-29T06:53:04.678Z,45.42
2022-07-29T06:55:31.402Z,45.23
2022-07-29T06:57:58.037Z,45.38
2022-07-29T07:00:24.797Z,45.45
2022-07-29T07:02:51.510Z,45.60
2022-07-29T07:05:18.374Z,45.08
2022-07-29T07:07:45.025Z,45.01
2022-07-29T07:10:11.745Z,43.98
2022-07-29T07:12:38.347Z,44.01
2022-07-29T07:15:05.586Z,100.00
2022-07-29T07:17:32.174Z,44.26
2022-07-29T07:19:59.113Z,44.53
2022-07-29T07:22:25.711Z,44.94
2022-07-29T07:24:52.492Z,100.00
2022-07-29T07:27:19.072Z,100.00
2022-07-29T07:29:45.645Z,100.00
2022-07-29T07:32:14.153Z,100.00
2022-07-29T07:34:40.836Z,100.00
2022-07-29T07:37:07.443Z,44.17
2022-07-29T07:39:34.061Z,43.71
2022-07-29T07:42:00.760Z,44.15
2022-07-29T07:44:27.339Z,43.97
2022-07-29T07:46:54.729Z,100.00
2022-07-29T07:49:21.730Z,100.00
2022-07-29T07:51:50.776Z,100.00
2022-07-29T07:54:18.853Z,100.00
2022-07-29T07:56:50.811Z,100.00
2022-07-29T07:59:20.011Z,100.00
2022-07-29T08:01:55.065Z,43.97
2022-07-29T08:04:28.133Z,43.59
2022-07-29T08:06:56.125Z,43.55
2022-07-29T08:09:30.980Z,100.00
2022-07-29T08:11:59.326Z,43.55
2022-07-29T08:14:26.199Z,44.48
2022-07-29T08:16:52.955Z,43.71
2022-07-29T08:19:19.621Z,43.42
2022-07-29T08:21:46.435Z,43.54
2022-07-29T08:24:31.505Z,43.46
2022-07-29T08:26:58.179Z,43.68
2022-07-29T08:29:24.844Z,43.56
2022-07-29T08:31:51.681Z,43.53
2022-07-29T08:34:18.489Z,43.19
2022-07-29T08:36:45.095Z,43.11
2022-07-29T08:39:17.424Z,43.00
2022-07-29T08:41:56.766Z,43.18
2022-07-29T08:44:30.512Z,43.92
2022-07-29T08:46:58.044Z,42.54
2022-07-29T08:49:24.729Z,43.45
2022-07-29T08:51:51.725Z,43.59
2022-07-29T08:54:19.483Z,42.71
2022-07-29T08:56:50.410Z,42.98
2022-07-29T08:59:18.776Z,42.73
2022-07-29T09:01:47.976Z,42.19
2022-07-29T09:04:15.875Z,42.48
2022-07-29T09:06:47.362Z,42.40
2022-07-29T09:09:14.813Z,42.68
2022-07-29T09:11:42.353Z,42.13
2022-07-29T09:14:09.342Z,42.32
2022-07-29T09:17:05.601Z,42.48
2022-07-29T09:19:37.105Z,41.99
2022-07-29T09:22:08.117Z,42.39
2022-07-29T09:24:35.276Z,41.87
2022-07-29T09:27:02.960Z,41.97
2022-07-29T09:29:33.226Z,41.62
2022-07-29T09:32:07.811Z,41.66
2022-07-29T09:34:34.507Z,41.97
2022-07-29T09:37:01.157Z,42.41
2022-07-29T09:39:39.790Z,41.63
2022-07-29T09:42:07.273Z,41.65
2022-07-29T09:44:49.536Z,41.77
2022-07-29T09:47:17.528Z,41.76
2022-07-29T09:49:58.796Z,41.97
2022-07-29T09:52:26.491Z,42.24
2022-07-29T09:54:54.994Z,41.72
2022-07-29T09:57:31.136Z,40.96
2022-07-29T10:00:02.223Z,40.64
2022-07-29T10:02:39.802Z,41.02
2022-07-29T10:05:36.218Z,41.14
2022-07-29T10:08:03.562Z,41.14
2022-07-29T10:10:31.335Z,40.50
2022-07-29T10:13:07.812Z,40.28
2022-07-29T10:15:45.990Z,40.71
2022-07-29T10:18:14.538Z,40.72
2022-07-29T10:20:41.553Z,39.82
2022-07-29T10:23:08.210Z,39.42
2022-07-29T10:25:34.801Z,39.81
2022-07-29T10:28:01.463Z,40.10
2022-07-29T10:30:28.418Z,39.79
2022-07-29T10:33:17.109Z,39.27
2022-07-29T10:36:02.278Z,39.77
2022-07-29T10:38:45.903Z,37.25
2022-07-29T10:41:32.118Z,37.50
2022-07-29T10:44:06.108Z,36.61
2022-07-29T10:46:38.089Z,36.68
2022-07-29T10:49:30.759Z,36.68
2022-07-29T10:52:06.156Z,35.97
2022-07-29T10:54:35.759Z,36.36
2022-07-29T10:57:53.905Z,36.29
2022-07-29T11:00:26.660Z,36.34
2022-07-29T11:02:56.444Z,36.29
2022-07-29T11:05:24.772Z,36.36
2022-07-29T11:08:20.377Z,35.75
2022-07-29T11:10:49.242Z,35.85
2022-07-29T11:13:54.182Z,34.65
2022-07-29T11:16:26.592Z,34.73
2022-07-29T11:19:11.503Z,34.44
2022-07-29T11:21:53.878Z,35.60
2022-07-29T11:27:20.665Z,34.26
2022-07-29T11:29:56.155Z,33.62
2022-07-29T11:32:25.108Z,33.98
2022-07-29T11:35:36.759Z,33.35
2022-07-29T11:38:24.768Z,32.97
2022-07-29T11:41:26.055Z,33.26
2022-07-29T11:43:54.729Z,33.87
2022-07-29T11:46:42.743Z,33.77
2022-07-29T11:49:12.046Z,33.96
2022-07-29T11:51:48.644Z,34.87
2022-07-29T11:54:18.102Z,33.42
2022-07-29T11:56:54.197Z,33.40
2022-07-29T11:59:21.103Z,33.37
2022-07-29T12:02:06.856Z,33.49
2022-07-29T12:04:55.318Z,33.34
2022-07-29T12:07:32.591Z,32.65
2022-07-29T12:10:01.950Z,31.85
2022-07-29T12:12:28.660Z,31.89
2022-07-29T12:14:56.300Z,31.26
2022-07-29T12:17:41.765Z,31.98
2022-07-29T12:20:09.017Z,31.21
2022-07-29T12:22:42.113Z,31.56
2022-07-29T12:28:07.185Z,31.20
2022-07-29T12:30:42.419Z,30.77
2022-07-29T12:33:18.155Z,100.00
2022-07-29T12:36:03.441Z,100.00
2022-07-29T12:38:33.338Z,100.00
2022-07-29T12:40:59.988Z,100.00
2022-07-29T12:43:26.683Z,100.00
2022-07-29T12:45:55.161Z,100.00
2022-07-29T12:48:39.002Z,100.00
2022-07-29T12:51:07.318Z,100.00
2022-07-29T12:53:34.217Z,100.00
2022-07-29T12:56:20.745Z,100.00
2022-07-29T12:58:52.821Z,100.00
2022-07-29T13:01:21.857Z,100.00
2022-07-29T13:03:59.782Z,100.00
2022-07-29T13:06:34.127Z,100.00
2022-07-29T13:09:15.487Z,100.00
2022-07-29T13:12:01.587Z,100.00
2022-07-29T13:14:39.710Z,100.00
2022-07-29T13:17:08.668Z,100.00
2022-07-29T13:19:45.332Z,100.00
2022-07-29T13:22:13.712Z,100.00
2022-07-29T13:24:50.892Z,100.00
2022-07-29T13:27:19.087Z,100.00
2022-07-29T13:29:46.278Z,100.00
2022-07-29T13:32:13.436Z,100.00
2022-07-29T13:34:40.693Z,100.00
2022-07-29T13:37:07.339Z,100.00
2022-07-29T13:39:34.026Z,100.00
2022-07-29T13:42:00.971Z,100.00
2022-07-29T13:44:27.945Z,100.00
2022-07-29T13:46:54.600Z,100.00
2022-07-29T13:49:21.315Z,100.00
2022-07-29T13:51:47.923Z,100.00
2022-07-29T13:54:14.559Z,100.00
2022-07-29T13:56:41.145Z,100.00
2022-07-29T13:59:08.709Z,100.00
2022-07-29T14:01:37.791Z,100.00
2022-07-29T14:04:04.744Z,100.00
2022-07-29T14:06:31.425Z,100.00
2022-07-29T14:08:58.076Z,100.00
2022-07-29T14:11:24.772Z,100.00
2022-07-29T14:13:51.537Z,100.00
2022-07-29T14:16:18.310Z,100.00
2022-07-29T14:18:45.045Z,100.00
2022-07-29T14:21:11.682Z,100.00
2022-07-29T14:23:38.376Z,100.00
2022-07-29T14:26:12.390Z,100.00
2022-07-29T14:28:42.721Z,100.00
2022-07-29T14:31:09.371Z,100.00
2022-07-29T14:33:35.957Z,100.00
2022-07-29T14:36:02.859Z,100.00
2022-07-29T14:38:29.710Z,100.00
2022-07-29T14:40:56.291Z,100.00
2022-07-29T14:43:22.875Z,100.00
2022-07-29T14:45:49.833Z,100.00
2022-07-29T14:48:16.494Z,100.00
2022-07-29T14:50:43.079Z,100.00
2022-07-29T14:53:09.732Z,100.00
2022-07-29T14:55:36.527Z,100.00
2022-07-29T14:58:09.895Z,100.00
2022-07-29T15:00:37.922Z,100.00
2022-07-29T15:03:05.029Z,100.00
2022-07-29T15:05:32.261Z,100.00
2022-07-29T15:07:59.847Z,100.00
2022-07-29T15:10:29.705Z,100.00
2022-07-29T15:12:56.856Z,100.00
2022-07-29T15:15:23.593Z,100.00
2022-07-29T15:17:50.251Z,100.00
2022-07-29T15:20:16.947Z,100.00
2022-07-29T15:22:43.985Z,100.00
2022-07-29T15:25:11.225Z,100.00
2022-07-29T15:27:37.879Z,100.00
2022-07-29T15:30:05.203Z,100.00
2022-07-29T15:32:31.869Z,100.00
2022-07-29T15:34:58.507Z,100.00
2022-07-29T15:37:25.235Z,100.00
2022-07-29T15:39:51.832Z,100.00
2022-07-29T15:42:18.435Z,100.00
2022-07-29T15:44:45.077Z,100.00
2022-07-29T15:47:11.694Z,100.00
2022-07-29T15:49:47.082Z,100.00
2022-07-29T15:52:25.731Z,100.00
2022-07-29T15:54:54.786Z,100.00
2022-07-29T15:57:21.625Z,100.00
2022-07-29T15:59:48.321Z,100.00
2022-07-29T16:02:15.568Z,100.00
2022-07-29T16:04:42.237Z,100.00
2022-07-29T16:07:08.879Z,100.00
2022-07-29T16:09:35.557Z,100.00
2022-07-29T16:12:02.177Z,100.00
2022-07-29T16:14:31.928Z,100.00
2022-07-29T16:16:58.711Z,100.00
2022-07-29T16:19:25.478Z,100.00
2022-07-29T16:21:53.477Z,100.00
2022-07-29T16:24:21.635Z,100.00
2022-07-29T16:26:48.208Z,100.00
2022-07-29T16:29:15.051Z,100.00
2022-07-29T16:31:41.763Z,100.00
2022-07-29T16:34:08.356Z,100.00
2022-07-29T16:36:34.999Z,100.00
2022-07-29T16:39:01.670Z,100.00
2022-07-29T16:41:29.739Z,100.00
2022-07-29T16:43:56.464Z,100.00
2022-07-29T16:46:24.342Z,100.00
2022-07-29T16:48:52.643Z,100.00
2022-07-29T16:51:19.377Z,100.00
2022-07-29T16:53:46.015Z,100.00
2022-07-29T16:56:17.115Z,100.00
2022-07-29T16:58:44.167Z,100.00
2022-07-29T17:01:11.889Z,100.00
2022-07-29T17:04:01.518Z,100.00
2022-07-29T17:06:29.547Z,100.00
2022-07-29T17:08:56.593Z,100.00
2022-07-29T17:11:52.657Z,100.00
2022-07-29T17:14:10.369Z,100.00
2022-07-29T17:16:37.110Z,100.00
2022-07-29T17:19:04.073Z,100.00
2022-07-29T17:21:30.767Z,100.00
2022-07-29T17:23:59.333Z,100.00
2022-07-29T17:26:28.343Z,30.77
2022-07-29T17:28:55.402Z,32.65
2022-07-29T17:31:22.374Z,32.45
2022-07-29T17:33:49.031Z,32.82
2022-07-29T17:36:24.849Z,33.53
2022-07-29T17:38:59.439Z,33.68
2022-07-29T17:41:26.155Z,33.75
2022-07-29T17:43:53.426Z,33.90
2022-07-29T17:46:22.295Z,34.46
2022-07-29T17:48:49.521Z,33.94
2022-07-29T17:51:16.463Z,34.24
2022-07-29T17:53:43.167Z,34.54
2022-07-29T17:56:09.824Z,34.95
2022-07-29T17:58:36.465Z,34.47
2022-07-29T18:01:03.598Z,34.81
2022-07-29T18:03:30.253Z,35.06
2022-07-29T18:05:56.921Z,35.01
2022-07-29T18:08:27.539Z,35.30
2022-07-29T18:10:54.143Z,35.36
2022-07-29T18:13:20.809Z,36.29
2022-07-29T18:15:47.993Z,36.38
2022-07-29T18:18:15.060Z,36.26
2022-07-29T18:20:43.409Z,36.14
2022-07-29T18:23:10.451Z,36.48
2022-07-29T18:25:37.586Z,37.11
2022-07-29T18:28:05.008Z,36.98
2022-07-29T18:30:33.834Z,38.04
2022-07-29T18:33:20.282Z,38.33
2022-07-29T18:35:48.432Z,39.17
2022-07-29T18:38:15.120Z,40.15
2022-07-29T18:40:45.760Z,38.58
2022-07-29T18:43:13.118Z,41.06
2022-07-29T18:45:40.290Z,40.56
2022-07-29T18:48:12.917Z,40.16
2022-07-29T18:50:40.709Z,40.42
2022-07-29T18:53:07.698Z,41.68
2022-07-29T18:55:34.904Z,39.57
2022-07-29T18:58:01.470Z,39.88
2022-07-29T19:00:28.233Z,39.57
2022-07-29T19:02:55.653Z,42.28
2022-07-29T19:05:23.249Z,41.35
2022-07-29T19:07:50.119Z,40.28
2022-07-29T19:10:17.507Z,41.45
2022-07-29T19:12:44.108Z,41.47
2022-07-29T19:15:11.037Z,39.93
2022-07-29T19:17:38.890Z,39.71
2022-07-29T19:20:07.170Z,39.72
2022-07-29T19:22:34.461Z,41.99
2022-07-29T19:25:01.655Z,41.73
2022-07-29T19:27:28.407Z,41.08
2022-07-29T19:29:58.765Z,40.64
2022-07-29T19:32:26.091Z,39.46
2022-07-29T19:35:11.227Z,40.18
2022-07-29T19:37:37.868Z,40.96
2022-07-29T19:40:06.149Z,41.76
2022-07-29T19:42:32.870Z,42.05
2022-07-29T19:44:59.511Z,41.55
2022-07-29T19:47:26.154Z,41.86
2022-07-29T19:49:52.824Z,40.64
2022-07-29T19:52:19.438Z,41.50
2022-07-29T19:54:46.103Z,40.95
2022-07-29T19:57:12.749Z,41.20
2022-07-29T19:59:40.969Z,42.23
2022-07-29T20:02:10.799Z,40.82
2022-07-29T20:04:37.981Z,41.21
2022-07-29T20:07:05.717Z,41.63
2022-07-29T20:09:32.463Z,41.95
2022-07-29T20:11:59.377Z,42.08
2022-07-29T20:14:26.103Z,41.93
2022-07-29T20:16:54.465Z,42.34
2022-07-29T20:19:21.389Z,42.22
2022-07-29T20:21:48.043Z,43.56
2022-07-29T20:24:14.675Z,43.19
2022-07-29T20:26:41.270Z,43.87
2022-07-29T20:29:07.964Z,44.31
2022-07-29T20:31:34.981Z,44.34
2022-07-29T20:34:02.074Z,44.34
2022-07-29T20:36:28.927Z,44.42
2022-07-29T20:38:56.213Z,44.61
2022-07-29T20:41:23.008Z,44.91
2022-07-29T20:43:52.804Z,45.16
2022-07-29T20:46:19.494Z,45.11
2022-07-29T20:48:47.215Z,44.91
2022-07-29T20:51:14.513Z,45.78
2022-07-29T20:53:41.532Z,45.72
2022-07-29T20:56:08.294Z,45.71
2022-07-29T20:58:36.202Z,45.72
2022-07-29T21:01:03.244Z,46.37
2022-07-29T21:03:30.126Z,46.06
2022-07-29T21:05:56.747Z,46.75
2022-07-29T21:08:23.486Z,46.45
2022-07-29T21:10:50.260Z,46.23
2022-07-29T21:13:17.107Z,46.41
2022-07-29T21:15:46.401Z,46.50
2022-07-29T21:18:30.418Z,47.33
2022-07-29T21:21:02.012Z,47.55
2022-07-29T21:23:30.055Z,47.55
2022-07-29T21:25:57.373Z,47.56
2022-07-29T21:28:26.857Z,47.08
2022-07-29T21:30:54.818Z,47.23
2022-07-29T21:33:21.695Z,47.92
2022-07-29T21:36:26.814Z,48.16
2022-07-29T21:38:36.026Z,47.97
2022-07-29T21:41:03.427Z,48.15
2022-07-29T21:43:30.330Z,48.21
2022-07-29T21:45:58.498Z,47.92
2022-07-29T21:48:27.124Z,48.43
2022-07-29T21:50:54.092Z,48.60
2022-07-29T21:53:22.836Z,48.86
2022-07-29T21:55:51.461Z,48.40
2022-07-29T21:58:22.042Z,48.09
2022-07-29T22:00:49.093Z,47.92
2022-07-29T22:03:16.265Z,47.79
2022-07-29T22:05:43.114Z,47.69
2022-07-29T22:08:09.861Z,46.50
2022-07-29T22:10:36.531Z,46.90
2022-07-29T22:13:03.961Z,46.50
2022-07-29T22:15:31.111Z,46.66
2022-07-29T22:17:57.871Z,46.89
2022-07-29T22:20:25.185Z,47.17
2022-07-29T22:22:52.115Z,47.07
2022-07-29T22:25:18.921Z,46.74
2022-07-29T22:27:45.842Z,46.60
2022-07-29T22:30:12.931Z,46.55
2022-07-29T22:32:39.961Z,46.62
2022-07-29T22:35:07.653Z,47.38
2022-07-29T22:37:34.402Z,47.42
2022-07-29T22:40:01.251Z,47.75
2022-07-29T22:42:27.980Z,47.92
2022-07-29T22:44:54.580Z,48.28
2022-07-29T22:47:38.951Z,48.11
2022-07-29T22:50:08.528Z,48.33
2022-07-29T22:52:35.373Z,47.97
2022-07-29T22:55:02.730Z,48.36
2022-07-29T22:57:29.540Z,48.66
2022-07-29T22:59:56.179Z,48.67
2022-07-29T23:02:22.801Z,48.67
2022-07-29T23:04:49.528Z,48.77
2022-07-29T23:07:16.229Z,48.47
2022-07-29T23:09:42.823Z,48.55
2022-07-29T23:12:09.697Z,49.04
2022-07-29T23:14:36.340Z,48.94
2022-07-29T23:17:03.383Z,49.18
2022-07-29T23:19:30.396Z,49.59
2022-07-29T23:21:57.036Z,49.22
2022-07-29T23:24:23.639Z,48.91
2022-07-29T23:26:50.237Z,49.06
2022-07-29T23:29:18.167Z,49.28
2022-07-29T23:31:48.020Z,48.72
2022-07-29T23:34:15.054Z,48.43
2022-07-29T23:36:42.423Z,48.14
2022-07-29T23:39:11.388Z,48.43
2022-07-29T23:41:38.114Z,48.72
2022-07-29T23:44:04.957Z,48.43
2022-07-29T23:46:31.698Z,48.26
2022-07-29T23:48:58.454Z,48.28
2022-07-29T23:51:25.213Z,48.49
2022-07-29T23:53:54.043Z,49.72
2022-07-29T23:56:21.129Z,49.13
2022-07-29T23:58:47.857Z,49.23
